sensor_id;sensor_type;location;lat;lon;timestamp;temperature;humidity
54126;DHT22;40360;52.992;6.796;2023-04-03T00:01:07;2.00;99.90
54126;DHT22;40360;52.992;6.796;2023-04-03T00:03:33;1.90;99.90
54126;DHT22;40360;52.992;6.796;2023-04-03T00:05:59;1.90;99.90
54126;DHT22;40360;52.992;6.796;2023-04-03T00:08:25;1.90;99.90
54126;DHT22;40360;52.992;6.796;2023-04-03T00:10:50;1.90;99.90
54126;DHT22;40360;52.992;6.796;2023-04-03T00:13:16;1.90;99.90
54126;DHT22;40360;52.992;6.796;2023-04-03T00:15:42;1.90;99.90
54126;DHT22;40360;52.992;6.796;2023-04-03T00:18:08;1.90;99.90
54126;DHT22;40360;52.992;6.796;2023-04-03T00:20:34;1.80;99.90
54126;DHT22;40360;52.992;6.796;2023-04-03T00:23:01;1.70;99.90
54126;DHT22;40360;52.992;6.796;2023-04-03T00:25:27;1.70;99.90
54126;DHT22;40360;52.992;6.796;2023-04-03T00:27:53;1.70;99.90
54126;DHT22;40360;52.992;6.796;2023-04-03T00:30:20;1.70;99.90
54126;DHT22;40360;52.992;6.796;2023-04-03T00:32:48;1.90;99.90
54126;DHT22;40360;52.992;6.796;2023-04-03T00:35:14;1.80;99.90
54126;DHT22;40360;52.992;6.796;2023-04-03T00:37:41;1.60;99.90
54126;DHT22;40360;52.992;6.796;2023-04-03T00:40:08;1.60;99.90
54126;DHT22;40360;52.992;6.796;2023-04-03T00:42:36;1.60;99.90
54126;DHT22;40360;52.992;6.796;2023-04-03T00:47:29;1.60;99.90
54126;DHT22;40360;52.992;6.796;2023-04-03T00:49:56;1.60;99.90
54126;DHT22;40360;52.992;6.796;2023-04-03T00:52:25;1.50;99.90
54126;DHT22;40360;52.992;6.796;2023-04-03T00:54:54;1.50;99.90
54126;DHT22;40360;52.992;6.796;2023-04-03T00:57:22;1.50;99.90
54126;DHT22;40360;52.992;6.796;2023-04-03T00:59:55;1.50;99.90
54126;DHT22;40360;52.992;6.796;2023-04-03T01:02:22;1.40;99.90
54126;DHT22;40360;52.992;6.796;2023-04-03T01:04:48;1.40;99.90
54126;DHT22;40360;52.992;6.796;2023-04-03T01:07:26;1.40;99.90
54126;DHT22;40360;52.992;6.796;2023-04-03T01:09:57;1.40;99.90
54126;DHT22;40360;52.992;6.796;2023-04-03T01:12:32;1.40;99.90
54126;DHT22;40360;52.992;6.796;2023-04-03T01:15:06;1.40;99.90
54126;DHT22;40360;52.992;6.796;2023-04-03T01:25:40;1.30;99.90
54126;DHT22;40360;52.992;6.796;2023-04-03T01:28:10;1.20;99.90
54126;DHT22;40360;52.992;6.796;2023-04-03T01:30:50;1.20;99.90
54126;DHT22;40360;52.992;6.796;2023-04-03T01:33:17;1.20;99.90
54126;DHT22;40360;52.992;6.796;2023-04-03T01:35:42;1.10;99.90
54126;DHT22;40360;52.992;6.796;2023-04-03T01:38:08;1.10;99.90
54126;DHT22;40360;52.992;6.796;2023-04-03T01:40:34;1.10;99.90
54126;DHT22;40360;52.992;6.796;2023-04-03T01:43:00;1.00;99.90
54126;DHT22;40360;52.992;6.796;2023-04-03T01:45:25;1.00;99.90
54126;DHT22;40360;52.992;6.796;2023-04-03T01:47:51;1.00;99.90
54126;DHT22;40360;52.992;6.796;2023-04-03T01:50:16;1.00;99.90
54126;DHT22;40360;52.992;6.796;2023-04-03T01:52:42;0.90;99.90
54126;DHT22;40360;52.992;6.796;2023-04-03T01:55:08;0.90;99.90
54126;DHT22;40360;52.992;6.796;2023-04-03T01:57:33;0.90;99.90
54126;DHT22;40360;52.992;6.796;2023-04-03T01:59:59;0.90;99.90
54126;DHT22;40360;52.992;6.796;2023-04-03T02:02:25;0.90;99.90
54126;DHT22;40360;52.992;6.796;2023-04-03T02:04:50;0.80;99.90
54126;DHT22;40360;52.992;6.796;2023-04-03T02:07:16;0.80;99.90
54126;DHT22;40360;52.992;6.796;2023-04-03T02:09:42;0.80;99.90
54126;DHT22;40360;52.992;6.796;2023-04-03T02:12:07;0.80;99.90
54126;DHT22;40360;52.992;6.796;2023-04-03T02:14:33;0.80;99.90
54126;DHT22;40360;52.992;6.796;2023-04-03T02:17:00;0.80;99.90
54126;DHT22;40360;52.992;6.796;2023-04-03T02:19:26;0.80;99.90
54126;DHT22;40360;52.992;6.796;2023-04-03T02:21:52;0.80;99.90
54126;DHT22;40360;52.992;6.796;2023-04-03T02:24:17;0.80;99.90
54126;DHT22;40360;52.992;6.796;2023-04-03T02:26:43;0.80;99.90
54126;DHT22;40360;52.992;6.796;2023-04-03T02:29:08;1.70;99.90
54126;DHT22;40360;52.992;6.796;2023-04-03T02:31:34;0.80;99.90
54126;DHT22;40360;52.992;6.796;2023-04-03T02:34:00;0.80;99.90
54126;DHT22;40360;52.992;6.796;2023-04-03T02:36:25;0.80;99.90
54126;DHT22;40360;52.992;6.796;2023-04-03T02:38:51;0.80;99.90
54126;DHT22;40360;52.992;6.796;2023-04-03T02:41:16;0.80;99.90
54126;DHT22;40360;52.992;6.796;2023-04-03T02:43:42;0.80;99.90
54126;DHT22;40360;52.992;6.796;2023-04-03T02:46:08;0.70;99.90
54126;DHT22;40360;52.992;6.796;2023-04-03T02:48:34;0.70;99.90
54126;DHT22;40360;52.992;6.796;2023-04-03T02:51:00;0.70;99.90
54126;DHT22;40360;52.992;6.796;2023-04-03T02:53:26;0.60;99.90
54126;DHT22;40360;52.992;6.796;2023-04-03T02:55:52;0.60;99.90
54126;DHT22;40360;52.992;6.796;2023-04-03T02:58:17;0.60;99.90
54126;DHT22;40360;52.992;6.796;2023-04-03T03:00:43;0.60;99.90
54126;DHT22;40360;52.992;6.796;2023-04-03T03:03:11;0.60;99.90
54126;DHT22;40360;52.992;6.796;2023-04-03T03:05:39;0.60;99.90
54126;DHT22;40360;52.992;6.796;2023-04-03T03:08:05;0.60;99.90
54126;DHT22;40360;52.992;6.796;2023-04-03T03:10:30;0.50;99.90
54126;DHT22;40360;52.992;6.796;2023-04-03T03:12:56;0.50;99.90
54126;DHT22;40360;52.992;6.796;2023-04-03T03:15:21;0.40;99.90
54126;DHT22;40360;52.992;6.796;2023-04-03T03:17:47;0.40;99.90
54126;DHT22;40360;52.992;6.796;2023-04-03T03:20:13;0.40;99.90
54126;DHT22;40360;52.992;6.796;2023-04-03T03:22:41;0.30;99.90
54126;DHT22;40360;52.992;6.796;2023-04-03T03:25:07;0.30;99.90
54126;DHT22;40360;52.992;6.796;2023-04-03T03:27:33;0.30;99.90
54126;DHT22;40360;52.992;6.796;2023-04-03T03:29:58;0.30;99.90
54126;DHT22;40360;52.992;6.796;2023-04-03T03:32:24;0.30;99.90
54126;DHT22;40360;52.992;6.796;2023-04-03T03:34:50;0.30;99.90
54126;DHT22;40360;52.992;6.796;2023-04-03T03:37:15;0.20;99.90
54126;DHT22;40360;52.992;6.796;2023-04-03T03:39:41;0.20;99.90
54126;DHT22;40360;52.992;6.796;2023-04-03T03:42:06;0.10;99.90
54126;DHT22;40360;52.992;6.796;2023-04-03T03:44:32;0.10;99.90
54126;DHT22;40360;52.992;6.796;2023-04-03T03:46:58;0.10;99.90
54126;DHT22;40360;52.992;6.796;2023-04-03T03:49:23;0.10;99.90
54126;DHT22;40360;52.992;6.796;2023-04-03T03:51:49;0.10;99.90
54126;DHT22;40360;52.992;6.796;2023-04-03T03:54:16;0.10;99.90
54126;DHT22;40360;52.992;6.796;2023-04-03T03:56:41;0.10;99.90
54126;DHT22;40360;52.992;6.796;2023-04-03T03:59:07;0.10;99.90
54126;DHT22;40360;52.992;6.796;2023-04-03T04:01:33;0.10;99.90
54126;DHT22;40360;52.992;6.796;2023-04-03T04:03:58;0.10;99.90
54126;DHT22;40360;52.992;6.796;2023-04-03T04:06:24;0.00;99.90
54126;DHT22;40360;52.992;6.796;2023-04-03T04:08:50;0.10;99.90
54126;DHT22;40360;52.992;6.796;2023-04-03T04:11:16;0.00;99.90
54126;DHT22;40360;52.992;6.796;2023-04-03T04:13:41;0.00;99.90
54126;DHT22;40360;52.992;6.796;2023-04-03T04:16:07;0.00;99.90
54126;DHT22;40360;52.992;6.796;2023-04-03T04:18:33;0.00;99.90
54126;DHT22;40360;52.992;6.796;2023-04-03T04:20:59;0.00;99.90
54126;DHT22;40360;52.992;6.796;2023-04-03T04:23:25;0.00;99.90
54126;DHT22;40360;52.992;6.796;2023-04-03T04:25:50;0.00;99.90
54126;DHT22;40360;52.992;6.796;2023-04-03T04:28:17;0.00;99.90
54126;DHT22;40360;52.992;6.796;2023-04-03T04:30:42;0.00;99.90
54126;DHT22;40360;52.992;6.796;2023-04-03T04:33:08;-0.10;99.90
54126;DHT22;40360;52.992;6.796;2023-04-03T04:35:34;-0.10;99.90
54126;DHT22;40360;52.992;6.796;2023-04-03T04:38:00;-0.10;99.90
54126;DHT22;40360;52.992;6.796;2023-04-03T04:40:26;-0.10;99.90
54126;DHT22;40360;52.992;6.796;2023-04-03T04:42:52;-0.10;99.90
54126;DHT22;40360;52.992;6.796;2023-04-03T04:45:18;-0.10;99.90
54126;DHT22;40360;52.992;6.796;2023-04-03T04:47:43;-0.10;99.90
54126;DHT22;40360;52.992;6.796;2023-04-03T04:50:09;-0.10;99.90
54126;DHT22;40360;52.992;6.796;2023-04-03T04:52:35;-0.10;99.90
54126;DHT22;40360;52.992;6.796;2023-04-03T04:55:01;-0.10;99.90
54126;DHT22;40360;52.992;6.796;2023-04-03T04:57:26;-0.10;99.90
54126;DHT22;40360;52.992;6.796;2023-04-03T04:59:52;-0.10;99.90
54126;DHT22;40360;52.992;6.796;2023-04-03T05:02:18;-0.10;99.90
54126;DHT22;40360;52.992;6.796;2023-04-03T05:04:43;-0.10;99.90
54126;DHT22;40360;52.992;6.796;2023-04-03T05:07:09;-0.10;99.90
54126;DHT22;40360;52.992;6.796;2023-04-03T05:09:35;-0.20;99.90
54126;DHT22;40360;52.992;6.796;2023-04-03T05:12:00;-0.10;99.90
54126;DHT22;40360;52.992;6.796;2023-04-03T05:14:28;-0.20;99.90
54126;DHT22;40360;52.992;6.796;2023-04-03T05:16:53;-0.20;99.90
54126;DHT22;40360;52.992;6.796;2023-04-03T05:19:20;-0.20;99.90
54126;DHT22;40360;52.992;6.796;2023-04-03T05:21:47;-0.20;99.90
54126;DHT22;40360;52.992;6.796;2023-04-03T05:24:13;-0.10;99.90
54126;DHT22;40360;52.992;6.796;2023-04-03T05:26:39;-0.10;99.90
54126;DHT22;40360;52.992;6.796;2023-04-03T05:29:04;-0.10;99.90
54126;DHT22;40360;52.992;6.796;2023-04-03T05:31:30;-0.10;99.90
54126;DHT22;40360;52.992;6.796;2023-04-03T05:33:57;0.00;99.90
54126;DHT22;40360;52.992;6.796;2023-04-03T05:36:23;0.00;99.90
54126;DHT22;40360;52.992;6.796;2023-04-03T05:38:49;0.10;99.90
54126;DHT22;40360;52.992;6.796;2023-04-03T05:41:15;0.10;99.90
54126;DHT22;40360;52.992;6.796;2023-04-03T06:00:47;0.60;99.90
54126;DHT22;40360;52.992;6.796;2023-04-03T06:03:12;0.60;99.90
54126;DHT22;40360;52.992;6.796;2023-04-03T06:05:38;0.70;99.90
54126;DHT22;40360;52.992;6.796;2023-04-03T06:08:04;0.70;99.90
54126;DHT22;40360;52.992;6.796;2023-04-03T06:10:29;0.80;99.90
54126;DHT22;40360;52.992;6.796;2023-04-03T06:12:58;0.80;99.90
54126;DHT22;40360;52.992;6.796;2023-04-03T06:15:24;0.90;99.90
54126;DHT22;40360;52.992;6.796;2023-04-03T06:17:50;0.90;99.90
54126;DHT22;40360;52.992;6.796;2023-04-03T06:20:16;1.00;99.90
54126;DHT22;40360;52.992;6.796;2023-04-03T06:22:42;1.00;99.90
54126;DHT22;40360;52.992;6.796;2023-04-03T06:25:08;1.00;99.90
54126;DHT22;40360;52.992;6.796;2023-04-03T06:27:34;1.10;99.90
54126;DHT22;40360;52.992;6.796;2023-04-03T06:30:00;1.10;99.90
54126;DHT22;40360;52.992;6.796;2023-04-03T06:32:26;1.10;99.90
54126;DHT22;40360;52.992;6.796;2023-04-03T06:34:51;1.20;99.90
54126;DHT22;40360;52.992;6.796;2023-04-03T06:37:20;1.20;99.90
54126;DHT22;40360;52.992;6.796;2023-04-03T06:39:47;1.30;99.90
54126;DHT22;40360;52.992;6.796;2023-04-03T06:42:12;1.30;99.90
54126;DHT22;40360;52.992;6.796;2023-04-03T06:44:38;1.40;99.90
54126;DHT22;40360;52.992;6.796;2023-04-03T06:47:04;1.40;99.90
54126;DHT22;40360;52.992;6.796;2023-04-03T06:49:30;1.50;99.90
54126;DHT22;40360;52.992;6.796;2023-04-03T06:51:56;1.60;99.90
54126;DHT22;40360;52.992;6.796;2023-04-03T06:54:22;1.60;99.90
54126;DHT22;40360;52.992;6.796;2023-04-03T06:56:48;1.70;99.90
54126;DHT22;40360;52.992;6.796;2023-04-03T06:59:14;1.80;99.90
54126;DHT22;40360;52.992;6.796;2023-04-03T07:01:43;1.90;99.90
54126;DHT22;40360;52.992;6.796;2023-04-03T07:04:08;2.00;99.90
54126;DHT22;40360;52.992;6.796;2023-04-03T07:06:34;2.10;99.90
54126;DHT22;40360;52.992;6.796;2023-04-03T07:09:01;2.20;99.90
54126;DHT22;40360;52.992;6.796;2023-04-03T07:11:27;2.30;99.90
54126;DHT22;40360;52.992;6.796;2023-04-03T07:13:53;2.40;99.90
54126;DHT22;40360;52.992;6.796;2023-04-03T07:16:19;2.50;99.90
54126;DHT22;40360;52.992;6.796;2023-04-03T07:18:45;2.70;99.90
54126;DHT22;40360;52.992;6.796;2023-04-03T07:21:12;2.70;99.90
54126;DHT22;40360;52.992;6.796;2023-04-03T07:23:38;2.80;99.90
54126;DHT22;40360;52.992;6.796;2023-04-03T07:26:04;2.90;99.90
54126;DHT22;40360;52.992;6.796;2023-04-03T07:28:30;3.10;99.90
54126;DHT22;40360;52.992;6.796;2023-04-03T07:31:07;3.20;99.90
54126;DHT22;40360;52.992;6.796;2023-04-03T07:33:34;3.20;99.90
54126;DHT22;40360;52.992;6.796;2023-04-03T07:36:00;3.30;99.90
54126;DHT22;40360;52.992;6.796;2023-04-03T07:38:26;3.40;99.90
54126;DHT22;40360;52.992;6.796;2023-04-03T07:40:52;3.50;99.90
54126;DHT22;40360;52.992;6.796;2023-04-03T07:43:19;3.50;99.90
54126;DHT22;40360;52.992;6.796;2023-04-03T07:45:46;3.60;99.90
54126;DHT22;40360;52.992;6.796;2023-04-03T07:48:15;3.70;99.90
54126;DHT22;40360;52.992;6.796;2023-04-03T07:50:41;3.80;99.90
54126;DHT22;40360;52.992;6.796;2023-04-03T07:53:07;3.80;99.90
54126;DHT22;40360;52.992;6.796;2023-04-03T07:55:33;3.90;99.90
54126;DHT22;40360;52.992;6.796;2023-04-03T07:57:59;4.00;99.90
54126;DHT22;40360;52.992;6.796;2023-04-03T08:00:24;4.10;99.90
54126;DHT22;40360;52.992;6.796;2023-04-03T08:02:50;4.20;99.90
54126;DHT22;40360;52.992;6.796;2023-04-03T08:05:20;4.30;99.90
54126;DHT22;40360;52.992;6.796;2023-04-03T08:07:46;4.30;99.90
54126;DHT22;40360;52.992;6.796;2023-04-03T08:10:12;4.40;99.90
54126;DHT22;40360;52.992;6.796;2023-04-03T08:12:38;4.50;99.90
54126;DHT22;40360;52.992;6.796;2023-04-03T08:15:05;4.60;99.90
54126;DHT22;40360;52.992;6.796;2023-04-03T08:17:32;4.60;99.90
54126;DHT22;40360;52.992;6.796;2023-04-03T08:19:57;4.70;99.90
54126;DHT22;40360;52.992;6.796;2023-04-03T08:22:23;4.80;99.90
54126;DHT22;40360;52.992;6.796;2023-04-03T08:24:49;4.90;99.90
54126;DHT22;40360;52.992;6.796;2023-04-03T08:27:14;5.00;99.90
54126;DHT22;40360;52.992;6.796;2023-04-03T08:29:40;5.10;99.90
54126;DHT22;40360;52.992;6.796;2023-04-03T08:32:06;5.20;99.90
54126;DHT22;40360;52.992;6.796;2023-04-03T08:34:32;5.30;99.90
54126;DHT22;40360;52.992;6.796;2023-04-03T08:37:01;5.40;99.90
54126;DHT22;40360;52.992;6.796;2023-04-03T08:39:27;5.50;99.90
54126;DHT22;40360;52.992;6.796;2023-04-03T08:41:56;5.60;99.90
54126;DHT22;40360;52.992;6.796;2023-04-03T08:49:56;5.90;99.90
54126;DHT22;40360;52.992;6.796;2023-04-03T08:52:45;6.00;99.90
54126;DHT22;40360;52.992;6.796;2023-04-03T08:55:23;6.10;99.90
54126;DHT22;40360;52.992;6.796;2023-04-03T08:57:58;6.10;99.90
54126;DHT22;40360;52.992;6.796;2023-04-03T09:00:28;6.20;99.90
54126;DHT22;40360;52.992;6.796;2023-04-03T09:02:56;6.30;99.90
54126;DHT22;40360;52.992;6.796;2023-04-03T09:05:45;6.30;99.90
54126;DHT22;40360;52.992;6.796;2023-04-03T09:08:21;6.40;99.90
54126;DHT22;40360;52.992;6.796;2023-04-03T09:10:49;6.50;99.90
54126;DHT22;40360;52.992;6.796;2023-04-03T09:13:26;6.50;99.90
54126;DHT22;40360;52.992;6.796;2023-04-03T09:15:55;6.60;99.90
54126;DHT22;40360;52.992;6.796;2023-04-03T09:18:28;6.70;99.90
54126;DHT22;40360;52.992;6.796;2023-04-03T09:21:14;6.70;99.90
54126;DHT22;40360;52.992;6.796;2023-04-03T09:23:47;6.80;99.90
54126;DHT22;40360;52.992;6.796;2023-04-03T09:29:07;7.00;99.90
54126;DHT22;40360;52.992;6.796;2023-04-03T09:31:43;7.10;99.90
54126;DHT22;40360;52.992;6.796;2023-04-03T09:34:27;7.20;99.90
54126;DHT22;40360;52.992;6.796;2023-04-03T09:36:58;7.20;99.90
54126;DHT22;40360;52.992;6.796;2023-04-03T09:39:26;7.40;99.90
54126;DHT22;40360;52.992;6.796;2023-04-03T09:41:57;7.50;99.90
54126;DHT22;40360;52.992;6.796;2023-04-03T09:44:26;7.70;99.90
54126;DHT22;40360;52.992;6.796;2023-04-03T09:46:51;7.70;99.90
54126;DHT22;40360;52.992;6.796;2023-04-03T09:49:18;7.70;99.90
54126;DHT22;40360;52.992;6.796;2023-04-03T09:51:44;7.80;99.90
54126;DHT22;40360;52.992;6.796;2023-04-03T09:54:33;7.90;99.90
54126;DHT22;40360;52.992;6.796;2023-04-03T09:57:07;8.00;99.90
54126;DHT22;40360;52.992;6.796;2023-04-03T09:59:34;8.10;99.90
54126;DHT22;40360;52.992;6.796;2023-04-03T10:02:20;8.10;99.90
54126;DHT22;40360;52.992;6.796;2023-04-03T10:04:46;8.20;99.90
54126;DHT22;40360;52.992;6.796;2023-04-03T10:07:28;8.30;99.90
54126;DHT22;40360;52.992;6.796;2023-04-03T10:12:40;8.40;99.90
54126;DHT22;40360;52.992;6.796;2023-04-03T10:15:13;8.50;99.90
54126;DHT22;40360;52.992;6.796;2023-04-03T10:18:00;8.60;99.90
54126;DHT22;40360;52.992;6.796;2023-04-03T10:28:30;9.00;99.90
54126;DHT22;40360;52.992;6.796;2023-04-03T10:36:48;9.10;99.90
54126;DHT22;40360;52.992;6.796;2023-04-03T10:47:19;9.40;99.90
54126;DHT22;40360;52.992;6.796;2023-04-03T10:52:37;9.60;99.90
54126;DHT22;40360;52.992;6.796;2023-04-03T10:57:39;9.70;99.90
54126;DHT22;40360;52.992;6.796;2023-04-03T11:00:16;9.90;99.90
54126;DHT22;40360;52.992;6.796;2023-04-03T11:02:59;10.00;99.90
54126;DHT22;40360;52.992;6.796;2023-04-03T11:08:12;10.10;99.90
54126;DHT22;40360;52.992;6.796;2023-04-03T11:10:42;10.20;99.90
54126;DHT22;40360;52.992;6.796;2023-04-03T11:14:26;10.30;99.90
54126;DHT22;40360;52.992;6.796;2023-04-03T11:16:24;10.40;99.90
54126;DHT22;40360;52.992;6.796;2023-04-03T11:21:46;10.50;99.90
54126;DHT22;40360;52.992;6.796;2023-04-03T11:24:23;10.60;99.90
54126;DHT22;40360;52.992;6.796;2023-04-03T11:26:50;10.60;99.90
54126;DHT22;40360;52.992;6.796;2023-04-03T11:29:23;10.70;99.60
54126;DHT22;40360;52.992;6.796;2023-04-03T11:32:04;10.70;98.90
54126;DHT22;40360;52.992;6.796;2023-04-03T11:34:40;10.80;99.20
54126;DHT22;40360;52.992;6.796;2023-04-03T11:37:39;10.80;99.70
54126;DHT22;40360;52.992;6.796;2023-04-03T11:40:21;10.90;99.30
54126;DHT22;40360;52.992;6.796;2023-04-03T11:42:48;10.90;99.60
54126;DHT22;40360;52.992;6.796;2023-04-03T11:47:59;11.00;99.60
54126;DHT22;40360;52.992;6.796;2023-04-03T12:01:05;11.30;98.00
54126;DHT22;40360;52.992;6.796;2023-04-03T12:03:35;11.30;97.10
54126;DHT22;40360;52.992;6.796;2023-04-03T12:08:50;11.20;97.20
54126;DHT22;40360;52.992;6.796;2023-04-03T12:11:28;11.20;97.50
54126;DHT22;40360;52.992;6.796;2023-04-03T12:16:27;11.40;98.40
54126;DHT22;40360;52.992;6.796;2023-04-03T12:21:23;11.60;97.70
54126;DHT22;40360;52.992;6.796;2023-04-03T12:24:03;11.50;97.50
54126;DHT22;40360;52.992;6.796;2023-04-03T12:27:00;11.60;97.60
54126;DHT22;40360;52.992;6.796;2023-04-03T12:40:35;12.00;96.00
54126;DHT22;40360;52.992;6.796;2023-04-03T12:45:59;12.00;96.50
54126;DHT22;40360;52.992;6.796;2023-04-03T12:48:29;12.00;96.90
54126;DHT22;40360;52.992;6.796;2023-04-03T12:50:57;12.00;97.00
54126;DHT22;40360;52.992;6.796;2023-04-03T12:53:29;12.00;97.10
54126;DHT22;40360;52.992;6.796;2023-04-03T12:56:24;12.00;96.40
54126;DHT22;40360;52.992;6.796;2023-04-03T12:58:51;12.10;96.30
54126;DHT22;40360;52.992;6.796;2023-04-03T13:01:22;12.20;96.90
54126;DHT22;40360;52.992;6.796;2023-04-03T13:03:52;12.20;96.10
54126;DHT22;40360;52.992;6.796;2023-04-03T13:06:27;12.30;97.00
54126;DHT22;40360;52.992;6.796;2023-04-03T13:09:00;12.40;96.20
54126;DHT22;40360;52.992;6.796;2023-04-03T13:11:41;12.40;96.60
54126;DHT22;40360;52.992;6.796;2023-04-03T13:14:24;12.40;95.00
54126;DHT22;40360;52.992;6.796;2023-04-03T13:19:27;12.40;96.30
54126;DHT22;40360;52.992;6.796;2023-04-03T13:22:34;12.40;96.50
54126;DHT22;40360;52.992;6.796;2023-04-03T13:25:07;12.40;95.70
54126;DHT22;40360;52.992;6.796;2023-04-03T13:27:35;12.40;96.20
54126;DHT22;40360;52.992;6.796;2023-04-03T13:30:02;13.20;95.30
54126;DHT22;40360;52.992;6.796;2023-04-03T13:32:30;12.40;95.80
54126;DHT22;40360;52.992;6.796;2023-04-03T13:34:56;12.40;95.90
54126;DHT22;40360;52.992;6.796;2023-04-03T13:37:30;12.30;95.70
54126;DHT22;40360;52.992;6.796;2023-04-03T13:42:33;12.20;94.70
54126;DHT22;40360;52.992;6.796;2023-04-03T13:47:45;12.10;95.00
54126;DHT22;40360;52.992;6.796;2023-04-03T13:52:42;12.10;95.10
54126;DHT22;40360;52.992;6.796;2023-04-03T13:55:52;12.10;95.40
54126;DHT22;40360;52.992;6.796;2023-04-03T14:01:07;12.10;94.70
54126;DHT22;40360;52.992;6.796;2023-04-03T14:03:44;12.30;93.20
54126;DHT22;40360;52.992;6.796;2023-04-03T14:06:13;12.80;93.30
54126;DHT22;40360;52.992;6.796;2023-04-03T14:08:39;12.70;93.20
54126;DHT22;40360;52.992;6.796;2023-04-03T14:11:11;12.60;93.20
54126;DHT22;40360;52.992;6.796;2023-04-03T14:13:37;12.40;93.20
54126;DHT22;40360;52.992;6.796;2023-04-03T14:16:04;12.30;93.60
54126;DHT22;40360;52.992;6.796;2023-04-03T14:18:29;12.50;92.70
54126;DHT22;40360;52.992;6.796;2023-04-03T14:20:55;12.80;92.20
54126;DHT22;40360;52.992;6.796;2023-04-03T14:23:21;13.20;91.80
54126;DHT22;40360;52.992;6.796;2023-04-03T14:25:46;13.40;91.00
54126;DHT22;40360;52.992;6.796;2023-04-03T14:28:21;13.30;91.40
54126;DHT22;40360;52.992;6.796;2023-04-03T14:30:49;13.30;91.90
54126;DHT22;40360;52.992;6.796;2023-04-03T14:33:18;13.40;91.60
54126;DHT22;40360;52.992;6.796;2023-04-03T14:35:44;13.30;91.80
54126;DHT22;40360;52.992;6.796;2023-04-03T14:40:48;13.20;91.70
54126;DHT22;40360;52.992;6.796;2023-04-03T14:43:13;13.40;92.00
54126;DHT22;40360;52.992;6.796;2023-04-03T14:45:39;13.40;91.70
54126;DHT22;40360;52.992;6.796;2023-04-03T14:48:06;13.50;91.00
54126;DHT22;40360;52.992;6.796;2023-04-03T14:50:35;13.60;90.70
54126;DHT22;40360;52.992;6.796;2023-04-03T14:53:00;13.40;91.50
54126;DHT22;40360;52.992;6.796;2023-04-03T14:55:26;13.40;91.40
54126;DHT22;40360;52.992;6.796;2023-04-03T14:57:53;13.60;91.60
54126;DHT22;40360;52.992;6.796;2023-04-03T15:00:21;13.70;91.30
54126;DHT22;40360;52.992;6.796;2023-04-03T15:02:47;13.40;90.50
54126;DHT22;40360;52.992;6.796;2023-04-03T15:05:13;13.40;90.70
54126;DHT22;40360;52.992;6.796;2023-04-03T15:07:46;13.50;90.40
54126;DHT22;40360;52.992;6.796;2023-04-03T15:10:27;13.30;90.80
54126;DHT22;40360;52.992;6.796;2023-04-03T15:12:53;12.90;90.00
54126;DHT22;40360;52.992;6.796;2023-04-03T15:15:21;12.70;91.00
54126;DHT22;40360;52.992;6.796;2023-04-03T15:17:51;12.30;91.70
54126;DHT22;40360;52.992;6.796;2023-04-03T15:20:21;12.10;91.40
54126;DHT22;40360;52.992;6.796;2023-04-03T15:22:47;11.90;90.80
54126;DHT22;40360;52.992;6.796;2023-04-03T15:25:13;11.60;91.60
54126;DHT22;40360;52.992;6.796;2023-04-03T15:27:39;11.60;91.10
54126;DHT22;40360;52.992;6.796;2023-04-03T15:30:07;11.50;91.10
54126;DHT22;40360;52.992;6.796;2023-04-03T15:32:33;12.20;91.20
54126;DHT22;40360;52.992;6.796;2023-04-03T15:35:00;11.80;91.50
54126;DHT22;40360;52.992;6.796;2023-04-03T15:37:26;11.90;91.50
54126;DHT22;40360;52.992;6.796;2023-04-03T15:39:52;11.90;91.50
54126;DHT22;40360;52.992;6.796;2023-04-03T15:42:18;11.90;91.40
54126;DHT22;40360;52.992;6.796;2023-04-03T15:44:43;11.90;91.40
54126;DHT22;40360;52.992;6.796;2023-04-03T15:47:09;12.00;91.20
54126;DHT22;40360;52.992;6.796;2023-04-03T15:49:35;12.20;90.90
54126;DHT22;40360;52.992;6.796;2023-04-03T15:52:01;12.40;90.30
54126;DHT22;40360;52.992;6.796;2023-04-03T15:54:27;12.70;90.40
54126;DHT22;40360;52.992;6.796;2023-04-03T15:56:55;12.90;90.80
54126;DHT22;40360;52.992;6.796;2023-04-03T15:59:21;13.00;90.30
54126;DHT22;40360;52.992;6.796;2023-04-03T16:01:48;13.00;90.80
54126;DHT22;40360;52.992;6.796;2023-04-03T16:04:14;13.00;90.30
54126;DHT22;40360;52.992;6.796;2023-04-03T16:06:40;13.00;90.20
54126;DHT22;40360;52.992;6.796;2023-04-03T16:09:07;13.00;90.10
54126;DHT22;40360;52.992;6.796;2023-04-03T16:11:33;12.80;90.30
54126;DHT22;40360;52.992;6.796;2023-04-03T16:14:00;12.70;90.50
54126;DHT22;40360;52.992;6.796;2023-04-03T16:16:26;12.50;89.80
54126;DHT22;40360;52.992;6.796;2023-04-03T16:18:54;12.60;89.80
54126;DHT22;40360;52.992;6.796;2023-04-03T16:21:21;12.70;89.70
54126;DHT22;40360;52.992;6.796;2023-04-03T16:23:46;12.80;89.10
54126;DHT22;40360;52.992;6.796;2023-04-03T16:26:12;12.80;88.20
54126;DHT22;40360;52.992;6.796;2023-04-03T16:28:38;12.70;88.60
54126;DHT22;40360;52.992;6.796;2023-04-03T16:31:05;12.70;90.00
54126;DHT22;40360;52.992;6.796;2023-04-03T16:33:31;12.70;90.20
54126;DHT22;40360;52.992;6.796;2023-04-03T16:35:57;12.60;90.10
54126;DHT22;40360;52.992;6.796;2023-04-03T16:38:22;12.50;90.00
54126;DHT22;40360;52.992;6.796;2023-04-03T16:40:48;12.20;89.80
54126;DHT22;40360;52.992;6.796;2023-04-03T16:43:15;12.00;88.80
54126;DHT22;40360;52.992;6.796;2023-04-03T16:45:41;11.80;89.60
54126;DHT22;40360;52.992;6.796;2023-04-03T16:48:07;11.70;90.10
54126;DHT22;40360;52.992;6.796;2023-04-03T16:50:33;11.80;90.10
54126;DHT22;40360;52.992;6.796;2023-04-03T16:52:59;12.00;90.70
54126;DHT22;40360;52.992;6.796;2023-04-03T16:55:25;12.10;90.50
54126;DHT22;40360;52.992;6.796;2023-04-03T16:57:50;11.90;90.20
54126;DHT22;40360;52.992;6.796;2023-04-03T17:00:16;11.70;90.40
54126;DHT22;40360;52.992;6.796;2023-04-03T17:02:42;11.40;90.70
54126;DHT22;40360;52.992;6.796;2023-04-03T17:05:08;11.30;91.40
54126;DHT22;40360;52.992;6.796;2023-04-03T17:07:34;11.20;91.40
54126;DHT22;40360;52.992;6.796;2023-04-03T17:10:00;10.90;91.90
54126;DHT22;40360;52.992;6.796;2023-04-03T17:12:25;11.50;92.20
54126;DHT22;40360;52.992;6.796;2023-04-03T17:14:51;10.30;92.20
54126;DHT22;40360;52.992;6.796;2023-04-03T17:17:22;10.10;92.60
54126;DHT22;40360;52.992;6.796;2023-04-03T17:19:49;9.90;92.60
54126;DHT22;40360;52.992;6.796;2023-04-03T17:22:15;9.80;92.70
54126;DHT22;40360;52.992;6.796;2023-04-03T17:24:43;9.80;92.90
54126;DHT22;40360;52.992;6.796;2023-04-03T17:27:09;9.80;93.30
54126;DHT22;40360;52.992;6.796;2023-04-03T17:29:34;9.90;93.40
54126;DHT22;40360;52.992;6.796;2023-04-03T17:32:00;9.80;93.10
54126;DHT22;40360;52.992;6.796;2023-04-03T17:34:26;9.70;93.50
54126;DHT22;40360;52.992;6.796;2023-04-03T17:36:51;9.40;93.50
54126;DHT22;40360;52.992;6.796;2023-04-03T17:39:17;9.10;93.60
54126;DHT22;40360;52.992;6.796;2023-04-03T17:41:43;8.80;94.10
54126;DHT22;40360;52.992;6.796;2023-04-03T17:44:10;8.60;94.60
54126;DHT22;40360;52.992;6.796;2023-04-03T17:46:36;8.30;95.40
54126;DHT22;40360;52.992;6.796;2023-04-03T17:49:02;8.20;96.00